createdAt,value
2018-03-24T16:43:33.453Z,33.40
2018-03-24T16:46:03.322Z,33.50
2018-03-24T16:48:30.448Z,33.50
2018-03-24T16:50:57.564Z,33.50
2018-03-24T16:53:24.676Z,33.50
2018-03-24T16:55:52.142Z,33.50
2018-03-24T16:58:19.345Z,33.50
2018-03-24T17:00:46.423Z,33.80
2018-03-24T17:03:13.648Z,33.70
2018-03-24T17:05:40.746Z,33.80
2018-03-24T17:08:08.019Z,33.80
2018-03-24T17:10:35.169Z,33.90
2018-03-24T17:13:02.519Z,33.90
2018-03-24T17:15:29.610Z,33.80
2018-03-24T17:17:56.777Z,33.80
2018-03-24T17:20:23.878Z,33.90
2018-03-24T17:22:51.706Z,34.80
2018-03-24T17:25:18.840Z,34.10
2018-03-24T17:27:45.994Z,34.40
2018-03-24T17:30:13.147Z,34.40
2018-03-24T17:32:40.248Z,34.40
2018-03-24T17:35:07.478Z,34.40
2018-03-24T17:37:34.608Z,34.30
2018-03-24T17:40:01.860Z,34.30
2018-03-24T17:42:29.060Z,34.10
2018-03-24T17:44:56.168Z,34.10
2018-03-24T17:47:23.279Z,34.00
2018-03-24T17:49:50.371Z,33.80
2018-03-24T17:52:28.267Z,33.70
2018-03-24T17:54:55.354Z,33.70
2018-03-24T17:57:22.468Z,33.70
2018-03-24T17:59:49.572Z,33.80
2018-03-24T18:02:16.704Z,33.90
2018-03-24T18:04:43.819Z,34.10
2018-03-24T18:07:10.936Z,33.90
2018-03-24T18:09:38.043Z,33.90
2018-03-24T18:12:05.164Z,34.00
2018-03-24T18:14:32.298Z,34.00
2018-03-24T18:16:59.445Z,34.00
2018-03-24T18:19:26.547Z,33.90
2018-03-24T18:21:54.442Z,33.90
2018-03-24T18:24:21.521Z,33.90
2018-03-24T18:26:48.614Z,34.00
2018-03-24T18:29:16.542Z,34.00
2018-03-24T18:31:43.691Z,34.70
2018-03-24T18:34:10.767Z,34.10
2018-03-24T18:36:37.863Z,34.10
2018-03-24T18:39:05.025Z,34.20
2018-03-24T18:41:32.121Z,34.30
2018-03-24T18:43:59.978Z,34.30
2018-03-24T18:46:26.881Z,34.20
2018-03-24T18:48:53.827Z,34.10
2018-03-24T18:51:21.711Z,33.80
2018-03-24T18:53:48.904Z,33.80
2018-03-24T18:56:15.997Z,34.00
2018-03-24T18:58:43.861Z,34.00
2018-03-24T19:01:11.867Z,34.10
2018-03-24T19:03:38.967Z,34.00
2018-03-24T19:06:06.101Z,34.10
2018-03-24T19:08:33.215Z,34.20
2018-03-24T19:11:00.329Z,34.30
2018-03-24T19:13:28.238Z,34.30
2018-03-24T19:15:55.344Z,34.30
2018-03-24T19:18:22.440Z,34.30
2018-03-24T19:20:50.444Z,34.30
2018-03-24T19:23:17.541Z,34.20
2018-03-24T19:25:44.742Z,34.10
2018-03-24T19:28:11.971Z,34.00
2018-03-24T19:30:39.066Z,34.10
2018-03-24T19:33:06.271Z,34.10
2018-03-24T19:35:33.362Z,34.10
2018-03-24T19:38:00.486Z,34.30
2018-03-24T19:40:27.591Z,34.40
2018-03-24T19:42:55.484Z,34.10
2018-03-24T19:45:22.621Z,34.00
2018-03-24T19:47:49.709Z,34.20
2018-03-24T19:50:16.783Z,34.30
2018-03-24T19:52:43.852Z,34.00
2018-03-24T19:55:10.953Z,34.10
2018-03-24T19:57:38.038Z,34.20
2018-03-24T20:00:05.145Z,34.00
2018-03-24T20:02:32.284Z,34.10
2018-03-24T20:04:59.515Z,34.10
2018-03-24T20:07:26.628Z,34.20
2018-03-24T20:09:54.554Z,34.10
2018-03-24T20:12:21.701Z,34.10
2018-03-24T20:14:48.784Z,34.10
2018-03-24T20:17:16.122Z,34.10
2018-03-24T20:19:43.227Z,34.20
2018-03-24T20:22:10.304Z,34.20
2018-03-24T20:24:37.438Z,34.30
2018-03-24T20:27:04.363Z,34.30
2018-03-24T20:29:31.457Z,34.10
2018-03-24T20:31:58.587Z,34.10
2018-03-24T20:34:25.804Z,34.00
2018-03-24T20:36:53.487Z,33.90
2018-03-24T20:39:20.758Z,33.80
2018-03-24T20:41:47.997Z,34.50
2018-03-24T20:44:15.260Z,33.80
2018-03-24T20:46:42.355Z,33.90
2018-03-24T20:49:09.474Z,33.80
2018-03-24T20:51:36.624Z,33.80
2018-03-24T20:54:03.792Z,33.80
2018-03-24T20:56:31.065Z,33.80
2018-03-24T20:58:58.233Z,33.80
2018-03-24T21:01:25.364Z,33.70
2018-03-24T21:03:53.439Z,33.80
2018-03-24T21:06:20.732Z,33.80
2018-03-24T21:08:47.909Z,33.80
2018-03-24T21:11:15.025Z,33.70
2018-03-24T21:13:42.924Z,33.60
2018-03-24T21:16:11.566Z,33.60
2018-03-24T21:18:38.675Z,33.60
2018-03-24T21:21:06.576Z,33.70
2018-03-24T21:23:33.728Z,33.60
2018-03-24T21:26:00.880Z,33.60
2018-03-24T21:28:28.007Z,33.60
2018-03-24T21:30:55.128Z,33.80
2018-03-24T21:33:22.233Z,33.60
2018-03-24T21:35:49.426Z,33.60
2018-03-24T21:38:16.733Z,33.50
2018-03-24T21:40:43.811Z,33.50
2018-03-24T21:43:11.724Z,33.60
2018-03-24T21:45:39.586Z,33.60
2018-03-24T21:48:07.634Z,33.60
2018-03-24T21:50:34.765Z,33.50
2018-03-24T21:53:02.048Z,33.60
2018-03-24T21:55:29.966Z,34.60
2018-03-24T21:57:57.241Z,34.50
2018-03-24T22:00:24.339Z,35.00
2018-03-24T22:02:52.237Z,34.10
2018-03-24T22:05:19.364Z,34.10
2018-03-24T22:07:47.268Z,33.40
2018-03-24T22:10:14.422Z,33.40
2018-03-24T22:12:41.519Z,33.10
2018-03-24T22:15:08.618Z,32.90
2018-03-24T22:17:35.738Z,32.70
2018-03-24T22:20:03.612Z,32.70
2018-03-24T22:22:30.708Z,33.40
2018-03-24T22:24:57.796Z,32.60
2018-03-24T22:27:24.903Z,32.60
2018-03-24T22:29:52.108Z,32.50
2018-03-24T22:32:19.258Z,32.60
2018-03-24T22:34:46.384Z,32.60
2018-03-24T22:37:13.602Z,32.70
2018-03-24T22:39:41.570Z,32.60
2018-03-24T22:42:09.548Z,32.60
2018-03-24T22:44:36.468Z,32.60
2018-03-24T22:47:03.586Z,32.70
2018-03-24T22:49:30.673Z,32.70
2018-03-24T22:51:57.765Z,32.70
2018-03-24T22:54:25.754Z,32.70
2018-03-24T22:56:52.852Z,32.60
2018-03-24T22:59:20.055Z,32.60
2018-03-24T23:01:47.153Z,32.60
2018-03-24T23:04:14.351Z,32.60
2018-03-24T23:06:41.442Z,32.60
2018-03-24T23:09:09.553Z,32.60
2018-03-24T23:11:36.689Z,32.60
2018-03-24T23:14:03.814Z,32.60
2018-03-24T23:16:31.675Z,32.60
2018-03-24T23:18:59.573Z,32.60
2018-03-24T23:21:26.689Z,32.50
2018-03-24T23:23:54.662Z,32.60
2018-03-24T23:26:21.806Z,32.50
2018-03-24T23:28:48.957Z,32.60
2018-03-24T23:31:16.165Z,32.60
2018-03-24T23:33:44.017Z,32.60
2018-03-24T23:36:11.995Z,32.60
2018-03-24T23:38:39.100Z,32.60
2018-03-24T23:41:06.006Z,32.60
2018-03-24T23:43:33.122Z,32.60
2018-03-24T23:46:00.662Z,33.20
2018-03-24T23:48:27.814Z,32.60
2018-03-24T23:50:54.963Z,32.60
2018-03-24T23:53:23.042Z,32.60
2018-03-24T23:55:50.888Z,32.60
2018-03-24T23:58:19.530Z,32.60
